Time;durP1;ratioP1;P1;durP2;ratioP2;P2;SDS_P1;SDS_P2;PMS_P1;PMS_P2;Temp;Humidity;BMP_temperature;BMP_pressure;BME280_temperature;BME280_humidity;BME280_pressure;Samples;Min_cycle;Max_cycle;Signal;HPM_P1;HPM_P2
2022/05/30 00:01:32;;;;;;;2.80;0.30;;;9.40;99.90;;;;;;5062104;28;20119;-70
2022/05/30 00:03:58;;;;;;;1.13;0.38;;;9.40;99.90;;;;;;5074501;28;20044;-70
2022/05/30 00:06:25;;;;;;;0.88;0.32;;;9.30;99.90;;;;;;5051992;28;20055;-70
2022/05/30 00:08:51;;;;;;;1.45;0.38;;;9.20;99.90;;;;;;5044994;28;20036;-70
2022/05/30 00:11:17;;;;;;;0.70;0.20;;;9.20;99.90;;;;;;5053502;28;20037;-70
2022/05/30 00:13:43;;;;;;;1.90;0.57;;;9.20;99.90;;;;;;5045630;28;20131;-70
2022/05/30 00:16:12;;;;;;;1.67;0.10;;;9.10;99.90;;;;;;5061137;28;20033;-70
2022/05/30 00:18:38;;;;;;;1.30;0.57;;;9.00;99.90;;;;;;5052103;28;20490;-70
2022/05/30 00:21:05;;;;;;;0.13;0.13;;;9.00;99.90;;;;;;5052639;28;20037;-70
2022/05/30 00:23:30;;;;;;;0.57;0.25;;;8.90;99.90;;;;;;5059493;28;20474;-70
2022/05/30 00:25:56;;;;;;;0.25;0.25;;;8.90;99.90;;;;;;5059484;28;20127;-70
2022/05/30 00:28:22;;;;;;;0.30;0.20;;;8.90;99.90;;;;;;5044820;28;20048;-70
2022/05/30 00:30:48;;;;;;;3.17;0.25;;;8.80;99.90;;;;;;5031906;28;20119;-71
2022/05/30 00:33:15;;;;;;;0.10;0.10;;;8.80;99.90;;;;;;5054242;28;20048;-70
2022/05/30 00:35:41;;;;;;;1.52;0.30;;;8.70;99.90;;;;;;5051646;28;20558;-70
2022/05/30 00:38:07;;;;;;;0.88;0.40;;;8.60;99.90;;;;;;5055938;28;20119;-70
2022/05/30 00:40:34;;;;;;;1.00;0.50;;;8.60;99.90;;;;;;5060196;28;20509;-70
2022/05/30 00:43:27;;;;;;;0.30;0.17;;;8.50;99.90;;;;;;5076380;28;20025;-70
2022/05/30 00:45:55;;;;;;;0.30;0.20;;;8.50;99.90;;;;;;5073100;28;20562;-70
2022/05/30 00:48:25;;;;;;;4.82;0.60;;;8.40;99.90;;;;;;5052635;28;20033;-70
2022/05/30 00:50:54;;;;;;;1.33;0.47;;;8.40;99.90;;;;;;5055113;28;20421;-70
2022/05/30 00:53:20;;;;;;;0.52;0.50;;;8.40;99.90;;;;;;5058867;28;20040;-70
2022/05/30 00:55:47;;;;;;;1.30;0.50;;;8.40;99.90;;;;;;5057196;28;20056;-70
2022/05/30 00:58:15;;;;;;;4.32;0.65;;;8.30;99.90;;;;;;5041916;28;20033;-70
2022/05/30 01:00:41;;;;;;;0.80;0.30;;;8.40;99.90;;;;;;5055226;28;20045;-70
2022/05/30 01:08:35;;;;;;;0.63;0.40;;;8.30;99.90;;;;;;5051194;28;20041;-70
2022/05/30 01:11:01;;;;;;;1.67;0.40;;;8.30;99.90;;;;;;5041621;28;20028;-70
2022/05/30 01:13:29;;;;;;;1.20;0.40;;;8.30;99.90;;;;;;5061124;28;20043;-70
2022/05/30 01:15:56;;;;;;;1.85;0.60;;;8.30;99.90;;;;;;5040359;28;20514;-70
2022/05/30 01:18:41;;;;;;;0.40;0.30;;;8.30;99.90;;;;;;5046454;28;20041;-70
2022/05/30 01:21:16;;;;;;;1.58;0.93;;;8.20;99.90;;;;;;5056871;28;20063;-70
2022/05/30 01:23:55;;;;;;;0.68;0.40;;;8.20;99.90;;;;;;5056979;28;20048;-70
2022/05/30 01:26:45;;;;;;;1.13;0.40;;;8.20;99.90;;;;;;5070745;28;20036;-70
2022/05/30 01:29:22;;;;;;;1.25;0.40;;;8.10;99.90;;;;;;5040597;28;20047;-70
2022/05/30 01:31:48;;;;;;;3.65;0.77;;;8.10;99.90;;;;;;5057431;28;20124;-70
2022/05/30 01:34:13;;;;;;;1.45;0.40;;;8.10;99.90;;;;;;5050383;28;20135;-70
2022/05/30 01:36:39;;;;;;;0.40;0.30;;;8.10;99.90;;;;;;5051889;28;20033;-70
2022/05/30 01:39:05;;;;;;;1.23;0.60;;;8.10;99.90;;;;;;5055508;28;20854;-70
2022/05/30 01:41:32;;;;;;;1.15;0.55;;;8.10;99.90;;;;;;5061599;28;20123;-70
2022/05/30 01:43:58;;;;;;;3.42;0.50;;;8.10;99.90;;;;;;5050236;28;20041;-70
2022/05/30 01:46:26;;;;;;;0.57;0.38;;;8.10;99.90;;;;;;5048805;28;20494;-70
2022/05/30 01:48:52;;;;;;;0.75;0.45;;;8.10;99.90;;;;;;5058521;28;20064;-70
2022/05/30 01:51:20;;;;;;;2.40;0.50;;;8.00;99.90;;;;;;5059482;28;20068;-70
2022/05/30 01:53:46;;;;;;;2.78;0.60;;;8.00;99.90;;;;;;5054576;28;20094;-70
2022/05/30 01:56:12;;;;;;;0.73;0.40;;;8.00;99.90;;;;;;5057520;28;20072;-70
2022/05/30 01:58:38;;;;;;;0.80;0.52;;;7.90;99.90;;;;;;5056914;28;20071;-70
2022/05/30 02:01:16;;;;;;;2.15;0.73;;;7.90;99.90;;;;;;5057857;28;20029;-70
2022/05/30 02:03:43;;;;;;;1.95;0.68;;;7.90;99.90;;;;;;5053802;28;20079;-70
2022/05/30 02:06:09;;;;;;;0.90;0.60;;;7.80;99.90;;;;;;5042679;28;20501;-70
2022/05/30 02:08:34;;;;;;;1.77;0.60;;;7.80;99.90;;;;;;5058954;28;20037;-70
2022/05/30 02:11:00;;;;;;;0.90;0.30;;;7.80;99.90;;;;;;5048441;28;20648;-70
2022/05/30 02:13:26;;;;;;;0.55;0.35;;;7.80;99.90;;;;;;5051235;28;20430;-70
2022/05/30 02:18:35;;;;;;;3.75;0.70;;;7.80;99.90;;;;;;5056046;28;20123;-70
2022/05/30 02:21:01;;;;;;;0.65;0.32;;;7.80;99.90;;;;;;5061986;28;20387;-70
2022/05/30 02:23:27;;;;;;;0.85;0.40;;;7.80;99.90;;;;;;5056497;28;20036;-70
2022/05/30 02:25:52;;;;;;;2.13;0.75;;;7.80;99.90;;;;;;5057302;28;20436;-70
2022/05/30 02:28:18;;;;;;;1.30;0.45;;;7.80;99.90;;;;;;5056391;28;20036;-70
2022/05/30 02:30:44;;;;;;;0.65;0.32;;;7.70;99.90;;;;;;5056221;28;20040;-70
2022/05/30 02:38:38;;;;;;;0.60;0.30;;;7.70;99.90;;;;;;5061278;28;20048;-70
2022/05/30 02:41:04;;;;;;;1.42;0.40;;;7.70;99.90;;;;;;5059816;28;20036;-70
2022/05/30 02:43:30;;;;;;;1.02;0.50;;;7.70;99.90;;;;;;5058459;28;20055;-70
2022/05/30 02:45:56;;;;;;;1.25;0.75;;;7.60;99.90;;;;;;5063038;28;20063;-70
2022/05/30 02:48:22;;;;;;;2.28;0.40;;;7.60;99.90;;;;;;5061288;28;20135;-70
2022/05/30 02:50:47;;;;;;;0.70;0.45;;;7.60;99.90;;;;;;5056439;28;20079;-70
2022/05/30 02:53:13;;;;;;;0.52;0.40;;;7.50;99.90;;;;;;5055830;28;20036;-70
2022/05/30 02:55:39;;;;;;;0.80;0.38;;;7.60;99.90;;;;;;5041677;28;20048;-70
2022/05/30 02:58:04;;;;;;;0.55;0.30;;;7.60;99.90;;;;;;5052639;28;20032;-70
2022/05/30 03:00:30;;;;;;;3.60;0.32;;;7.60;99.90;;;;;;5056499;28;20049;-70
2022/05/30 03:02:56;;;;;;;1.00;0.40;;;7.60;99.90;;;;;;5066517;28;20032;-70
2022/05/30 03:05:21;;;;;;;1.23;0.35;;;7.60;99.90;;;;;;5040288;28;20178;-70
2022/05/30 03:07:47;;;;;;;0.40;0.30;;;7.60;99.90;;;;;;5054978;28;20119;-70
2022/05/30 03:10:13;;;;;;;0.38;0.20;;;7.60;99.90;;;;;;5061737;28;20427;-70
2022/05/30 03:12:38;;;;;;;0.10;0.10;;;7.50;99.90;;;;;;5056357;28;20518;-70
2022/05/30 03:15:04;;;;;;;0.20;0.20;;;7.50;99.90;;;;;;5039819;28;20044;-70
2022/05/30 03:17:30;;;;;;;0.30;0.25;;;7.40;99.90;;;;;;5060705;28;20643;-70
2022/05/30 03:19:56;;;;;;;0.57;0.25;;;7.30;99.90;;;;;;5045921;28;20529;-70
2022/05/30 03:22:22;;;;;;;0.75;0.30;;;7.20;99.90;;;;;;5060157;28;20044;-70
2022/05/30 03:24:47;;;;;;;0.95;0.47;;;7.20;99.90;;;;;;5042309;28;20144;-70
2022/05/30 03:27:13;;;;;;;1.30;0.60;;;7.20;99.90;;;;;;5054033;28;20123;-70
2022/05/30 03:29:39;;;;;;;0.40;0.20;;;7.20;99.90;;;;;;5056115;28;20048;-70
2022/05/30 03:32:05;;;;;;;1.30;0.25;;;7.10;99.90;;;;;;5062469;28;20036;-70
2022/05/30 03:34:30;;;;;;;0.77;0.40;;;7.10;99.90;;;;;;5060148;28;20047;-70
2022/05/30 03:36:56;;;;;;;3.55;0.35;;;7.10;99.90;;;;;;5076812;28;20028;-70
2022/05/30 03:39:22;;;;;;;0.95;0.45;;;7.10;99.90;;;;;;5045685;28;20035;-70
2022/05/30 03:41:47;;;;;;;0.30;0.10;;;7.10;99.90;;;;;;5062132;28;20036;-70
2022/05/30 03:44:13;;;;;;;0.93;0.52;;;7.10;99.90;;;;;;5060111;28;20048;-70
2022/05/30 03:46:38;;;;;;;0.30;0.13;;;7.10;99.90;;;;;;5061528;28;20036;-70
2022/05/30 03:49:04;;;;;;;0.20;0.20;;;7.10;99.90;;;;;;5061755;28;20036;-70
2022/05/30 03:51:30;;;;;;;0.47;0.30;;;7.10;99.90;;;;;;5063378;28;20551;-70
2022/05/30 03:53:56;;;;;;;0.98;0.50;;;7.00;99.90;;;;;;5070003;28;20044;-70
2022/05/30 03:56:22;;;;;;;0.65;0.35;;;7.10;99.90;;;;;;5063474;28;20073;-70
2022/05/30 03:58:48;;;;;;;1.27;0.73;;;7.10;99.90;;;;;;5051981;28;20120;-70
2022/05/30 04:01:13;;;;;;;0.52;0.32;;;7.10;99.90;;;;;;5051992;28;20029;-70
2022/05/30 04:03:40;;;;;;;1.30;0.40;;;7.00;99.90;;;;;;5052357;28;20032;-70
2022/05/30 04:06:07;;;;;;;1.10;0.40;;;7.10;99.90;;;;;;5060860;28;20386;-70
2022/05/30 04:08:33;;;;;;;2.90;0.57;;;7.10;99.90;;;;;;5061948;28;20036;-70
2022/05/30 04:10:59;;;;;;;0.75;0.35;;;7.10;99.90;;;;;;5071326;28;20040;-70
2022/05/30 04:13:25;;;;;;;0.68;0.45;;;7.20;99.90;;;;;;5070539;28;20044;-70
2022/05/30 04:15:50;;;;;;;0.63;0.40;;;7.20;99.90;;;;;;5070118;28;20042;-70
2022/05/30 04:18:16;;;;;;;0.50;0.40;;;7.20;99.90;;;;;;5070335;28;20058;-70
2022/05/30 04:20:42;;;;;;;0.40;0.40;;;7.20;99.90;;;;;;5054566;28;20055;-70
2022/05/30 04:23:08;;;;;;;3.28;0.52;;;7.30;99.90;;;;;;5052037;28;20041;-70
2022/05/30 04:25:33;;;;;;;0.47;0.25;;;7.30;99.90;;;;;;5060641;28;20483;-70
2022/05/30 04:27:59;;;;;;;0.75;0.40;;;7.30;99.90;;;;;;5066789;28;20059;-70
2022/05/30 04:30:25;;;;;;;1.20;0.60;;;7.40;99.90;;;;;;5062163;28;20035;-70
2022/05/30 04:32:51;;;;;;;2.20;0.40;;;7.40;99.90;;;;;;5065594;28;20048;-70
2022/05/30 04:35:17;;;;;;;0.50;0.30;;;7.30;99.90;;;;;;5047853;28;20043;-70
2022/05/30 04:37:45;;;;;;;0.47;0.30;;;7.40;99.90;;;;;;5061660;28;20036;-70
2022/05/30 04:40:13;;;;;;;0.85;0.38;;;7.30;99.90;;;;;;5056101;28;20066;-70
2022/05/30 04:42:39;;;;;;;1.00;0.30;;;7.30;99.90;;;;;;5057555;28;20143;-70
2022/05/30 04:45:05;;;;;;;2.17;0.70;;;7.30;99.90;;;;;;5046629;28;20119;-70
2022/05/30 04:47:35;;;;;;;2.28;0.55;;;7.30;99.90;;;;;;5074580;28;20068;-70
2022/05/30 04:50:05;;;;;;;1.02;0.52;;;7.40;99.90;;;;;;5058058;28;20374;-70
2022/05/30 04:52:31;;;;;;;1.00;0.50;;;7.40;99.90;;;;;;5060670;28;20040;-70
2022/05/30 04:54:57;;;;;;;0.88;0.50;;;7.50;99.90;;;;;;5041488;28;20032;-70
2022/05/30 04:57:23;;;;;;;0.70;0.25;;;7.60;99.90;;;;;;5065923;28;20661;-70
2022/05/30 04:59:48;;;;;;;0.70;0.30;;;7.60;99.90;;;;;;5046539;28;20333;-70
2022/05/30 05:02:15;;;;;;;1.42;0.55;;;7.70;99.90;;;;;;5057368;28;20040;-70
2022/05/30 05:04:41;;;;;;;0.75;0.32;;;7.80;99.90;;;;;;5055371;28;20746;-70
2022/05/30 05:07:08;;;;;;;0.73;0.40;;;7.80;99.90;;;;;;5057931;28;20040;-70
2022/05/30 05:10:06;;;;;;;1.40;0.68;;;7.90;99.90;;;;;;5061835;28;20489;-70
2022/05/30 05:12:32;;;;;;;0.52;0.30;;;8.00;99.90;;;;;;5056520;28;20051;-70
2022/05/30 05:14:57;;;;;;;4.20;0.75;;;8.10;99.90;;;;;;5054632;28;20037;-70
2022/05/30 05:17:23;;;;;;;0.50;0.30;;;8.20;99.90;;;;;;5046650;28;20406;-70
2022/05/30 05:19:48;;;;;;;0.98;0.50;;;8.30;99.90;;;;;;5061814;28;20757;-70
2022/05/30 05:22:15;;;;;;;0.60;0.40;;;8.30;99.90;;;;;;5056913;28;20043;-70
2022/05/30 05:24:42;;;;;;;1.35;0.60;;;8.40;99.90;;;;;;5044116;28;20051;-70
2022/05/30 05:27:07;;;;;;;1.23;0.55;;;8.50;99.90;;;;;;5063166;28;20036;-70
2022/05/30 05:29:33;;;;;;;4.22;0.80;;;8.50;99.90;;;;;;5060525;28;20400;-71
2022/05/30 05:31:59;;;;;;;1.77;0.40;;;8.60;99.90;;;;;;5038297;28;20093;-70
2022/05/30 05:34:24;;;;;;;0.40;0.30;;;8.70;99.90;;;;;;5059428;28;20036;-70
2022/05/30 05:36:50;;;;;;;2.15;0.70;;;8.70;99.90;;;;;;5059163;28;20493;-70
2022/05/30 05:39:17;;;;;;;1.08;0.70;;;8.80;99.90;;;;;;5047680;28;20043;-70
2022/05/30 05:41:44;;;;;;;1.08;0.60;;;8.80;99.90;;;;;;5055350;28;20036;-70
2022/05/30 05:44:11;;;;;;;0.98;0.65;;;9.00;99.90;;;;;;5058694;28;20086;-70
2022/05/30 05:46:37;;;;;;;1.38;0.52;;;9.00;99.90;;;;;;5056419;28;20513;-71
2022/05/30 05:49:06;;;;;;;1.23;0.52;;;9.10;99.90;;;;;;5047884;28;20032;-70
2022/05/30 05:51:31;;;;;;;1.30;0.63;;;9.10;99.90;;;;;;5043604;28;20059;-70
2022/05/30 05:53:57;;;;;;;2.13;0.52;;;9.20;99.90;;;;;;5054474;28;20040;-70
2022/05/30 05:56:29;;;;;;;0.70;0.30;;;9.20;99.90;;;;;;5047495;28;20042;-70
2022/05/30 05:58:55;;;;;;;1.05;0.50;;;9.30;99.90;;;;;;5060376;28;20054;-70
2022/05/30 06:01:27;;;;;;;5.43;0.75;;;9.40;99.90;;;;;;5055427;28;20049;-70
2022/05/30 06:03:58;;;;;;;1.83;0.65;;;9.50;99.90;;;;;;5065173;28;20642;-70
2022/05/30 06:06:26;;;;;;;1.67;0.75;;;9.50;99.90;;;;;;5056746;28;20083;-69
2022/05/30 06:08:53;;;;;;;1.02;0.60;;;9.50;99.90;;;;;;5042520;28;20382;-70
2022/05/30 06:11:21;;;;;;;0.95;0.50;;;9.60;99.90;;;;;;5059901;28;20053;-70
2022/05/30 06:13:47;;;;;;;0.70;0.38;;;9.70;99.90;;;;;;5063195;28;20045;-69
2022/05/30 06:16:17;;;;;;;0.63;0.43;;;9.80;99.90;;;;;;5061231;28;20032;-70
2022/05/30 06:18:43;;;;;;;1.77;0.60;;;10.00;99.90;;;;;;5081392;28;20047;-70
2022/05/30 06:21:09;;;;;;;1.10;0.50;;;10.10;99.90;;;;;;5048908;28;20482;-70
2022/05/30 06:23:35;;;;;;;0.63;0.30;;;10.20;99.90;;;;;;5068422;28;20086;-70
2022/05/30 06:26:05;;;;;;;0.57;0.30;;;10.30;99.90;;;;;;5055086;28;20041;-70
2022/05/30 06:28:31;;;;;;;1.00;0.45;;;10.50;99.90;;;;;;5054932;28;20123;-70
2022/05/30 06:30:57;;;;;;;0.10;0.10;;;10.90;99.90;;;;;;5053229;28;20131;-69
2022/05/30 06:33:23;;;;;;;0.90;0.45;;;11.60;99.90;;;;;;5056445;28;20448;-69
2022/05/30 06:35:49;;;;;;;1.40;0.32;;;12.30;99.90;;;;;;5054437;28;20036;-70
2022/05/30 06:38:16;;;;;;;0.52;0.25;;;12.70;99.90;;;;;;5066080;28;20040;-70
2022/05/30 06:40:43;;;;;;;0.28;0.20;;;13.00;99.90;;;;;;5074000;28;20128;-70
2022/05/30 06:43:09;;;;;;;0.20;0.10;;;13.10;99.90;;;;;;5057246;28;20076;-70
2022/05/30 06:45:34;;;;;;;0.52;0.20;;;13.20;99.90;;;;;;5063357;28;20476;-70
2022/05/30 06:48:00;;;;;;;2.17;0.38;;;13.10;99.90;;;;;;5062497;28;20043;-70
2022/05/30 06:50:27;;;;;;;1.55;0.40;;;13.00;99.90;;;;;;5061868;28;20028;-69
2022/05/30 06:52:53;;;;;;;1.27;0.20;;;12.90;99.90;;;;;;5056939;28;20054;-70
2022/05/30 06:55:18;;;;;;;1.90;0.30;;;12.80;99.90;;;;;;5056117;28;20051;-70
2022/05/30 07:00:30;;;;;;;0.63;0.32;;;12.60;99.90;;;;;;5071431;28;20127;-69
2022/05/30 07:02:56;;;;;;;1.08;0.25;;;12.50;99.90;;;;;;5059293;28;20067;-69
2022/05/30 07:05:22;;;;;;;3.15;0.52;;;12.30;99.90;;;;;;5058931;28;20455;-70
2022/05/30 07:07:48;;;;;;;0.55;0.20;;;12.20;99.90;;;;;;5046428;28;20209;-70
2022/05/30 07:10:14;;;;;;;0.10;0.10;;;12.00;99.90;;;;;;5051256;28;20650;-70
2022/05/30 07:12:39;;;;;;;1.48;0.40;;;11.80;99.90;;;;;;5071176;28;20516;-69
2022/05/30 07:15:06;;;;;;;0.38;0.22;;;11.70;99.90;;;;;;5060007;28;20241;-70
2022/05/30 07:17:32;;;;;;;0.50;0.30;;;11.60;99.90;;;;;;5057042;28;20062;-69
2022/05/30 07:19:57;;;;;;;0.50;0.30;;;11.60;99.90;;;;;;5055644;28;20115;-69
2022/05/30 07:22:24;;;;;;;1.17;0.30;;;11.50;99.90;;;;;;5054195;28;20528;-69
2022/05/30 07:24:50;;;;;;;0.38;0.10;;;11.50;99.90;;;;;;5054330;28;20082;-70
2022/05/30 07:27:15;;;;;;;0.40;0.20;;;11.60;99.90;;;;;;5052275;28;20036;-70
2022/05/30 07:29:41;;;;;;;0.30;0.15;;;11.70;99.90;;;;;;5049014;28;20323;-70
2022/05/30 07:32:07;;;;;;;0.25;0.20;;;11.60;99.90;;;;;;5055183;28;20505;-70
2022/05/30 07:34:33;;;;;;;0.60;0.20;;;11.60;99.90;;;;;;5057674;28;20445;-69
2022/05/30 07:36:59;;;;;;;0.10;0.10;;;11.60;99.90;;;;;;5048193;28;20036;-69
2022/05/30 07:39:25;;;;;;;0.40;0.20;;;11.60;99.90;;;;;;5043699;28;20035;-69
2022/05/30 07:41:51;;;;;;;0.35;0.10;;;11.60;99.90;;;;;;5061488;28;20086;-69
2022/05/30 07:44:16;;;;;;;0.70;0.30;;;11.70;99.90;;;;;;5048797;28;20075;-69
2022/05/30 07:46:45;;;;;;;0.40;0.20;;;11.70;99.90;;;;;;5058783;28;20050;-69
2022/05/30 07:49:12;;;;;;;0.60;0.20;;;11.70;99.90;;;;;;5082268;28;20068;-69
2022/05/30 07:51:38;;;;;;;0.13;0.03;;;11.80;99.90;;;;;;5093181;28;20357;-69
2022/05/30 07:54:05;;;;;;;0.17;0.10;;;11.90;99.90;;;;;;5065231;28;20028;-69
2022/05/30 07:56:30;;;;;;;0.55;0.20;;;11.90;99.90;;;;;;5067843;28;20036;-69
2022/05/30 07:58:56;;;;;;;0.30;0.10;;;12.00;99.90;;;;;;5064247;28;20043;-69
2022/05/30 08:01:22;;;;;;;0.28;0.10;;;12.00;99.90;;;;;;5064792;28;20039;-68
2022/05/30 08:03:51;;;;;;;0.40;0.20;;;11.90;99.90;;;;;;5078970;28;20036;-68
2022/05/30 08:06:21;;;;;;;0.52;0.20;;;11.90;99.90;;;;;;5079101;28;20498;-69
2022/05/30 08:08:47;;;;;;;0.05;0.05;;;11.90;99.90;;;;;;5047042;28;20036;-69
2022/05/30 08:11:15;;;;;;;0.28;0.10;;;12.00;99.90;;;;;;5064900;28;20077;-69
2022/05/30 08:13:41;;;;;;;0.70;0.40;;;12.20;99.90;;;;;;5043126;28;20052;-69
2022/05/30 08:16:07;;;;;;;0.50;0.20;;;12.30;99.90;;;;;;5082980;28;20093;-69
2022/05/30 08:18:33;;;;;;;0.25;0.25;;;12.30;99.90;;;;;;5049219;28;20043;-69
2022/05/30 08:21:00;;;;;;;0.60;0.20;;;12.30;99.90;;;;;;5058439;28;20040;-69
2022/05/30 08:23:27;;;;;;;2.28;0.40;;;12.20;99.90;;;;;;5055935;28;20068;-68
2022/05/30 08:25:53;;;;;;;0.47;0.20;;;12.10;99.90;;;;;;5059590;28;20094;-68
2022/05/30 08:28:19;;;;;;;0.00;0.00;;;12.00;99.90;;;;;;5060987;28;20050;-68
2022/05/30 08:30:45;;;;;;;0.17;0.17;;;12.00;99.90;;;;;;5069305;28;20059;-69
2022/05/30 08:33:12;;;;;;;0.35;0.15;;;11.90;99.90;;;;;;5066113;28;20117;-68
2022/05/30 08:35:38;;;;;;;0.50;0.20;;;11.90;99.90;;;;;;5064989;28;20044;-68
2022/05/30 08:38:04;;;;;;;0.20;0.15;;;11.90;99.90;;;;;;5060624;28;20036;-68
2022/05/30 08:43:25;;;;;;;0.60;0.10;;;11.90;99.90;;;;;;5078882;28;20040;-68
2022/05/30 08:45:57;;;;;;;0.30;0.20;;;11.90;99.90;;;;;;5072643;28;20032;-69
2022/05/30 08:48:42;;;;;;;0.82;0.22;;;11.90;99.90;;;;;;5047783;28;20555;-69
2022/05/30 08:51:38;;;;;;;0.40;0.25;;;11.90;99.90;;;;;;5032415;28;20043;-69
2022/05/30 08:54:16;;;;;;;0.20;0.17;;;11.90;99.90;;;;;;5054896;28;20048;-69
2022/05/30 08:56:43;;;;;;;0.30;0.20;;;11.90;99.90;;;;;;5062332;28;20056;-69
2022/05/30 08:59:30;;;;;;;1.33;0.30;;;11.80;99.90;;;;;;5060451;28;20041;-69
2022/05/30 09:02:09;;;;;;;0.10;0.10;;;11.70;99.90;;;;;;5062596;28;20093;-69
2022/05/30 09:05:00;;;;;;;0.10;0.10;;;11.60;99.90;;;;;;5061985;28;20134;-69
2022/05/30 09:07:29;;;;;;;0.32;0.10;;;11.60;99.90;;;;;;5060739;28;20036;-69
2022/05/30 09:10:07;;;;;;;0.05;0.00;;;11.60;99.90;;;;;;5055542;28;20041;-69
2022/05/30 09:12:47;;;;;;;0.85;0.20;;;11.50;99.90;;;;;;5054334;28;20036;-69
2022/05/30 09:15:24;;;;;;;0.47;0.20;;;11.50;99.90;;;;;;5047169;28;20036;-69
2022/05/30 09:18:03;;;;;;;0.20;0.20;;;11.50;99.90;;;;;;5061745;28;20454;-69
2022/05/30 09:20:31;;;;;;;0.17;0.10;;;11.60;99.90;;;;;;5058604;28;20094;-69
2022/05/30 09:22:56;;;;;;;1.67;0.13;;;11.60;99.90;;;;;;5051844;28;20051;-69
2022/05/30 09:28:16;;;;;;;0.10;0.10;;;11.70;99.90;;;;;;5065906;28;20040;-69
2022/05/30 09:31:00;;;;;;;0.10;0.10;;;11.80;99.90;;;;;;5047452;28;20505;-69
2022/05/30 09:33:39;;;;;;;0.00;0.00;;;11.90;99.90;;;;;;5052560;28;20051;-70
2022/05/30 09:36:19;;;;;;;0.00;0.00;;;12.00;99.90;;;;;;5049032;28;20669;-65
2022/05/30 09:38:50;;;;;;;0.00;0.00;;;12.10;99.90;;;;;;5068667;28;20047;-69
2022/05/30 09:41:22;;;;;;;0.28;0.10;;;12.20;99.90;;;;;;5054021;28;20088;-69
2022/05/30 09:44:03;;;;;;;0.38;0.10;;;12.30;99.90;;;;;;5045259;28;20485;-69
2022/05/30 09:46:36;;;;;;;0.15;0.15;;;12.40;99.90;;;;;;5054416;28;20074;-69
2022/05/30 09:49:07;;;;;;;0.00;0.00;;;12.50;99.90;;;;;;5038554;28;20519;-69
2022/05/30 09:51:39;;;;;;;0.05;0.05;;;12.70;99.90;;;;;;5058506;28;20524;-69
2022/05/30 09:54:09;;;;;;;1.55;0.10;;;12.80;99.90;;;;;;5058906;28;20957;-69
2022/05/30 09:56:40;;;;;;;0.17;0.13;;;12.80;99.90;;;;;;5036457;28;20127;-69
2022/05/30 09:59:24;;;;;;;0.17;0.10;;;12.80;99.90;;;;;;5052242;28;20336;-69
2022/05/30 10:01:54;;;;;;;2.30;0.13;;;12.50;99.90;;;;;;5053455;28;20135;-69
2022/05/30 10:04:38;;;;;;;0.20;0.10;;;12.20;99.90;;;;;;5038037;28;20032;-72
2022/05/30 10:07:18;;;;;;;0.43;0.22;;;12.00;99.90;;;;;;5053977;28;20097;-69
2022/05/30 10:09:51;;;;;;;0.20;0.10;;;11.80;99.90;;;;;;5070371;28;20047;-69
2022/05/30 10:12:32;;;;;;;0.30;0.10;;;11.60;99.90;;;;;;5075967;28;20110;-69
2022/05/30 10:14:58;;;;;;;0.50;0.25;;;11.50;99.90;;;;;;5044719;28;20119;-70
2022/05/30 10:17:35;;;;;;;0.20;0.10;;;11.40;99.90;;;;;;5048958;28;20173;-70
2022/05/30 10:20:12;;;;;;;0.08;0.08;;;11.40;99.90;;;;;;5056171;28;20670;-69
2022/05/30 10:28:54;;;;;;;0.10;0.10;;;11.40;99.90;;;;;;5049307;28;20457;-69
2022/05/30 10:31:40;;;;;;;0.20;0.20;;;11.40;99.90;;;;;;5051793;28;20044;-70
2022/05/30 10:34:18;;;;;;;;;;;11.40;99.90;;;;;;5051159;28;20056;-69
2022/05/30 10:37:05;;;;;;;0.05;0.05;;;11.50;99.90;;;;;;5052732;28;19916;-69
2022/05/30 10:40:00;;;;;;;0.98;0.20;;;11.50;99.90;;;;;;5049371;28;20040;-69
2022/05/30 10:42:54;;;;;;;0.38;0.10;;;11.60;99.90;;;;;;5062065;28;20040;-69
2022/05/30 10:45:29;;;;;;;0.60;0.20;;;11.60;99.90;;;;;;5042349;28;20043;-69
2022/05/30 10:47:56;;;;;;;0.10;0.10;;;11.70;99.90;;;;;;5045196;28;20413;-69
2022/05/30 10:50:51;;;;;;;0.00;0.00;;;11.80;99.90;;;;;;5053858;28;20172;-69
2022/05/30 10:53:32;;;;;;;0.43;0.28;;;11.90;99.90;;;;;;5050050;28;20064;-69
2022/05/30 10:56:04;;;;;;;1.30;0.10;;;12.00;99.90;;;;;;5052979;28;20153;-69
2022/05/30 10:58:36;;;;;;;0.10;0.10;;;12.10;99.90;;;;;;5052014;28;20055;-69
2022/05/30 11:01:46;;;;;;;0.40;0.15;;;12.20;99.90;;;;;;5052415;28;20376;-69
2022/05/30 11:04:56;;;;;;;0.45;0.20;;;12.40;99.90;;;;;;5040768;28;20121;-69
2022/05/30 11:07:44;;;;;;;0.13;0.10;;;12.50;99.90;;;;;;5053315;28;20052;-69
2022/05/30 11:10:22;;;;;;;0.17;0.10;;;12.60;99.90;;;;;;5054490;28;20033;-69
2022/05/30 11:12:55;;;;;;;0.10;0.10;;;12.70;99.90;;;;;;5060255;28;20070;-69
2022/05/30 11:15:21;;;;;;;0.13;0.10;;;12.80;99.90;;;;;;5060328;28;20047;-69
2022/05/30 11:18:13;;;;;;;2.33;0.13;;;12.90;99.90;;;;;;5056084;28;20040;-69
2022/05/30 11:21:05;;;;;;;0.57;0.13;;;13.00;99.90;;;;;;5073519;28;20036;-69
2022/05/30 11:23:31;;;;;;;0.10;0.10;;;13.00;99.90;;;;;;5055371;28;20040;-69
2022/05/30 11:26:17;;;;;;;0.73;0.30;;;13.10;99.90;;;;;;5047532;28;20047;-69
2022/05/30 11:29:10;;;;;;;0.63;0.25;;;13.10;99.90;;;;;;5059289;28;20052;-69
2022/05/30 11:32:02;;;;;;;0.22;0.10;;;13.10;99.90;;;;;;5059338;28;20093;-69
2022/05/30 11:34:36;;;;;;;1.27;0.28;;;13.10;99.90;;;;;;5052835;28;20687;-69
2022/05/30 11:37:27;;;;;;;0.10;0.10;;;13.10;99.90;;;;;;5033591;28;20201;-69
2022/05/30 11:40:13;;;;;;;0.30;0.10;;;13.00;99.90;;;;;;5057320;28;20092;-69
2022/05/30 11:43:03;;;;;;;0.20;0.20;;;13.00;99.90;;;;;;5042278;28;20028;-70
2022/05/30 11:45:42;;;;;;;0.40;0.20;;;12.90;99.90;;;;;;5039028;28;20075;-69
2022/05/30 11:48:23;;;;;;;0.17;0.10;;;12.80;99.90;;;;;;5057514;28;20055;-69
2022/05/30 11:51:14;;;;;;;0.30;0.20;;;12.60;99.90;;;;;;5053304;28;20120;-69
2022/05/30 11:53:57;;;;;;;0.10;0.10;;;12.40;99.90;;;;;;5047761;28;20048;-69
2022/05/30 11:56:43;;;;;;;0.08;0.08;;;12.20;99.90;;;;;;5056438;28;20493;-69
2022/05/30 11:59:28;;;;;;;;;;;12.10;99.90;;;;;;5052446;28;20092;-69
2022/05/30 12:01:58;;;;;;;0.10;0.10;;;12.00;99.90;;;;;;5066983;28;19927;-69
2022/05/30 12:04:45;;;;;;;0.20;0.13;;;11.90;99.90;;;;;;5059395;28;20044;-69
2022/05/30 12:07:25;;;;;;;0.10;0.10;;;11.90;99.90;;;;;;5057074;28;20055;-69
2022/05/30 12:10:23;;;;;;;0.22;0.10;;;11.80;99.90;;;;;;5046468;28;20051;-69
2022/05/30 12:13:14;;;;;;;0.30;0.20;;;11.80;99.90;;;;;;5001145;28;20059;-68
2022/05/30 12:16:01;;;;;;;0.63;0.15;;;11.80;99.90;;;;;;5050534;28;20131;-68
2022/05/30 12:24:37;;;;;;;0.13;0.13;;;11.90;99.90;;;;;;5053214;28;20048;-69
2022/05/30 12:27:07;;;;;;;0.25;0.25;;;12.00;99.90;;;;;;5056048;28;20036;-69
2022/05/30 12:29:39;;;;;;;0.57;0.28;;;12.00;99.90;;;;;;5050538;28;20522;-69
2022/05/30 12:32:11;;;;;;;4.38;0.52;;;12.10;99.90;;;;;;5059135;28;20122;-69
2022/05/30 12:34:58;;;;;;;0.40;0.20;;;12.20;99.90;;;;;;5077017;28;20173;-69
2022/05/30 12:37:47;;;;;;;0.30;0.20;;;12.20;99.90;;;;;;5063821;28;20051;-69
2022/05/30 12:40:27;;;;;;;0.75;0.25;;;12.30;99.90;;;;;;5038289;28;20402;-69
2022/05/30 12:43:10;;;;;;;0.10;0.10;;;12.30;99.90;;;;;;5057006;28;20040;-68
2022/05/30 12:45:47;;;;;;;0.35;0.20;;;12.30;99.90;;;;;;5057373;28;20040;-68
2022/05/30 12:48:25;;;;;;;0.85;0.22;;;12.40;99.90;;;;;;5034944;28;20177;-69
2022/05/30 12:50:50;;;;;;;0.20;0.10;;;12.40;99.90;;;;;;5050362;28;20133;-69
2022/05/30 12:53:17;;;;;;;0.20;0.20;;;12.50;99.90;;;;;;5047369;28;20702;-69
2022/05/30 12:55:54;;;;;;;1.08;0.40;;;12.50;99.90;;;;;;5064417;28;20078;-69
2022/05/30 12:58:41;;;;;;;0.28;0.20;;;12.50;99.90;;;;;;5057781;28;20200;-69
2022/05/30 13:01:09;;;;;;;0.30;0.20;;;12.60;99.90;;;;;;5050697;28;20040;-69
2022/05/30 13:03:39;;;;;;;0.10;0.10;;;12.60;99.90;;;;;;5053286;28;20375;-69
2022/05/30 13:06:15;;;;;;;0.63;0.30;;;12.60;99.90;;;;;;5038381;28;20097;-69
2022/05/30 13:09:12;;;;;;;0.13;0.10;;;12.60;99.90;;;;;;5063370;28;20040;-69
2022/05/30 13:11:52;;;;;;;0.43;0.30;;;12.70;99.90;;;;;;5055300;28;20024;-69
2022/05/30 13:14:42;;;;;;;0.95;0.45;;;12.70;99.90;;;;;;5064678;28;20040;-69
2022/05/30 13:17:34;;;;;;;0.25;0.20;;;12.70;99.90;;;;;;5056197;28;20127;-69
2022/05/30 13:20:09;;;;;;;0.10;0.10;;;12.80;99.90;;;;;;5077728;28;20067;-69
2022/05/30 13:22:51;;;;;;;0.70;0.52;;;12.80;99.90;;;;;;5062897;28;20050;-69
2022/05/30 13:25:32;;;;;;;0.47;0.22;;;12.80;99.90;;;;;;5050669;28;20044;-69
2022/05/30 13:28:11;;;;;;;0.13;0.10;;;12.90;99.90;;;;;;5063969;28;20080;-69
2022/05/30 13:30:37;;;;;;;0.20;0.15;;;13.00;99.90;;;;;;5053608;28;20040;-69
2022/05/30 13:33:12;;;;;;;0.57;0.40;;;13.00;99.90;;;;;;5055045;28;20466;-69
2022/05/30 13:35:39;;;;;;;0.38;0.30;;;13.00;99.90;;;;;;5068058;28;20051;-69
2022/05/30 13:38:08;;;;;;;0.38;0.17;;;13.00;99.90;;;;;;5062818;28;20040;-69
2022/05/30 13:40:34;;;;;;;1.95;0.20;;;13.10;99.90;;;;;;5066073;28;20032;-69
2022/05/30 13:43:03;;;;;;;0.95;0.50;;;13.10;99.90;;;;;;5060539;28;20037;-69
2022/05/30 13:45:39;;;;;;;0.85;0.32;;;13.10;99.90;;;;;;5065261;28;20417;-69
2022/05/30 13:48:11;;;;;;;0.88;0.47;;;13.10;99.90;;;;;;5056689;28;20051;-69